createdAt,value
2018-08-28T06:50:39.333Z,59.10
2018-08-28T06:53:06.843Z,59.20
2018-08-28T06:55:34.355Z,58.00
2018-08-28T06:58:01.865Z,57.40
2018-08-28T07:00:29.376Z,57.20
2018-08-28T07:02:56.887Z,57.00
2018-08-28T07:05:24.429Z,56.90
2018-08-28T07:07:52.005Z,56.90
2018-08-28T07:10:19.559Z,56.80
2018-08-28T07:12:47.004Z,56.50
2018-08-28T07:15:14.519Z,56.10
2018-08-28T07:17:42.032Z,55.80
2018-08-28T07:20:09.561Z,55.60
2018-08-28T07:22:37.105Z,55.40
2018-08-28T07:25:04.648Z,55.20
2018-08-28T07:27:32.163Z,55.00
2018-08-28T07:30:00.499Z,55.00
2018-08-28T07:32:28.005Z,55.00
2018-08-28T07:34:55.511Z,54.90
2018-08-28T07:37:24.059Z,54.80
2018-08-28T07:39:51.534Z,55.70
2018-08-28T07:42:19.065Z,57.50
2018-08-28T07:44:46.601Z,58.40
2018-08-28T07:47:14.106Z,59.10
2018-08-28T07:49:41.648Z,58.30
2018-08-28T07:52:09.176Z,57.80
2018-08-28T07:54:36.765Z,57.70
2018-08-28T07:57:04.245Z,57.60
2018-08-28T07:59:31.782Z,57.40
2018-08-28T08:01:59.293Z,57.10
2018-08-28T08:04:26.834Z,56.50
2018-08-28T08:06:54.338Z,56.50
2018-08-28T08:09:21.866Z,56.90
2018-08-28T08:11:49.379Z,56.10
2018-08-28T08:14:16.983Z,56.10
2018-08-28T08:16:44.717Z,55.90
2018-08-28T08:19:12.289Z,55.50
2018-08-28T08:21:39.804Z,55.40
2018-08-28T08:24:07.357Z,55.90
2018-08-28T08:26:34.876Z,56.00
2018-08-28T12:31:28.816Z,48.50
2018-08-28T12:33:56.421Z,48.80
2018-08-28T12:36:24.022Z,48.20
2018-08-28T12:38:52.408Z,47.90
2018-08-28T12:41:20.691Z,47.20
2018-08-28T12:43:48.338Z,46.70
2018-08-28T12:46:16.008Z,47.40
2018-08-28T12:48:43.649Z,46.80
2018-08-28T13:04:56.701Z,46.40
2018-08-28T13:07:33.136Z,46.40
2018-08-28T13:10:01.531Z,45.80
2018-08-28T13:12:29.755Z,45.80
2018-08-28T13:14:57.281Z,45.60
2018-08-28T13:17:24.818Z,45.20
2018-08-28T13:19:52.340Z,45.50
2018-08-28T13:22:19.877Z,45.50
2018-08-28T13:24:47.388Z,44.80
2018-08-28T13:27:14.915Z,45.00
2018-08-28T13:29:42.436Z,45.30
2018-08-28T13:32:09.960Z,44.80
2018-08-28T13:34:37.482Z,44.80
2018-08-28T13:37:05.021Z,44.50
2018-08-28T13:39:32.550Z,44.70
2018-08-28T13:42:00.553Z,45.00
2018-08-28T13:44:28.070Z,44.60
2018-08-28T13:46:55.652Z,44.80
2018-08-28T13:49:23.197Z,44.70
2018-08-28T13:51:50.732Z,44.60
2018-08-28T13:54:18.463Z,44.30
2018-08-28T13:56:45.935Z,44.40
2018-08-28T13:59:13.492Z,44.40
2018-08-28T14:01:41.025Z,43.70
2018-08-28T14:04:08.592Z,44.00
2018-08-28T14:06:36.118Z,44.00
2018-08-28T14:09:04.372Z,43.80
2018-08-28T14:11:31.903Z,43.60
2018-08-28T14:13:59.471Z,43.30
2018-08-28T14:16:26.957Z,43.40
2018-08-28T14:18:54.484Z,42.40
2018-08-28T14:21:22.469Z,43.10
2018-08-28T14:23:49.973Z,42.80
2018-08-28T14:26:18.205Z,43.00
2018-08-28T14:28:45.789Z,43.00
2018-08-28T14:31:13.269Z,42.80
2018-08-28T14:33:40.778Z,42.90
2018-08-28T14:36:08.305Z,43.30
2018-08-28T14:38:35.841Z,43.70
2018-08-28T14:41:03.356Z,43.00
2018-08-28T14:43:30.925Z,42.90
2018-08-28T14:45:58.432Z,43.00
2018-08-28T14:48:25.972Z,43.00
2018-08-28T14:50:53.487Z,43.30
2018-08-28T14:53:21.022Z,43.40
2018-08-28T14:55:48.546Z,43.30
2018-08-28T14:58:16.089Z,43.10
2018-08-28T15:00:43.599Z,43.40
2018-08-28T15:03:11.469Z,43.50
2018-08-28T15:05:38.982Z,44.10
2018-08-28T15:08:06.510Z,43.80
